Time;durP1;ratioP1;P1;durP2;ratioP2;P2;SDS_P1;SDS_P2;PMS_P1;PMS_P2;Temp;Humidity;BMP_temperature;BMP_pressure;BME280_temperature;BME280_humidity;BME280_pressure;Samples;Min_cycle;Max_cycle;Signal;HPM_P1;HPM_P2
2023/03/13 00:04:15;;;;;;;14.20;5.13;;;;;;;8.74;100.00;100140.59;10451065;28;20047;-71
2023/03/13 00:09:16;;;;;;;14.70;6.57;;;;;;;8.55;100.00;100133.66;10403969;28;20030;-71
2023/03/13 00:14:16;;;;;;;23.02;7.18;;;;;;;8.53;100.00;100115.34;10454620;28;20048;-71
2023/03/13 00:19:16;;;;;;;17.23;6.45;;;;;;;8.49;100.00;100114.31;10485403;28;20387;-71
2023/03/13 00:24:17;;;;;;;26.42;7.45;;;;;;;8.44;100.00;100097.53;10463208;28;20067;-72
2023/03/13 00:29:17;;;;;;;23.27;8.20;;;;;;;8.42;100.00;100093.09;10442725;28;20132;-71
2023/03/13 00:34:18;;;;;;;21.40;6.03;;;;;;;8.25;100.00;100088.03;10444309;28;20037;-70
2023/03/13 00:39:19;;;;;;;15.20;5.22;;;;;;;8.30;100.00;100083.00;10400556;28;20120;-70
2023/03/13 00:44:19;;;;;;;17.00;5.05;;;;;;;8.37;100.00;100070.31;10454572;28;20073;-71
2023/03/13 00:49:19;;;;;;;18.15;5.65;;;;;;;8.25;100.00;100058.44;10441772;28;20472;-71
2023/03/13 00:54:20;;;;;;;15.25;6.50;;;;;;;8.11;100.00;100073.47;10452970;28;20115;-71
2023/03/13 00:59:20;;;;;;;14.05;5.68;;;;;;;8.18;100.00;100057.28;10447864;28;20040;-71
2023/03/13 01:04:21;;;;;;;32.72;6.57;;;;;;;8.17;100.00;100058.13;10428548;28;20498;-71
2023/03/13 01:09:21;;;;;;;16.90;6.88;;;;;;;8.10;100.00;100053.44;10442017;28;20029;-70
2023/03/13 01:14:22;;;;;;;18.33;6.78;;;;;;;8.04;100.00;100041.03;10422948;28;20057;-70
2023/03/13 01:19:22;;;;;;;21.75;8.30;;;;;;;7.99;100.00;100022.59;10414590;28;20478;-71
2023/03/13 01:24:23;;;;;;;19.45;6.72;;;;;;;8.00;100.00;100013.03;10455632;28;20136;-71
2023/03/13 01:29:24;;;;;;;19.95;8.07;;;;;;;8.05;100.00;100002.00;10474230;28;20119;-70
2023/03/13 01:34:24;;;;;;;19.70;8.23;;;;;;;8.05;100.00;99995.91;10435447;28;20049;-71
2023/03/13 01:39:24;;;;;;;20.85;7.68;;;;;;;8.09;100.00;99990.00;10431670;28;20034;-71
2023/03/13 01:44:25;;;;;;;15.20;7.15;;;;;;;8.12;100.00;99974.50;10451471;28;20040;-70
2023/03/13 01:49:32;;;;;;;18.80;6.00;;;;;;;8.14;100.00;99969.34;10463484;28;20037;-70
2023/03/13 01:54:39;;;;;;;23.88;8.35;;;;;;;8.20;100.00;99953.97;10464545;28;20067;-70
2023/03/13 01:59:44;;;;;;;14.95;6.40;;;;;;;8.25;100.00;99949.84;10449783;28;20041;-70
2023/03/13 02:04:46;;;;;;;13.98;5.45;;;;;;;8.34;100.00;99937.19;10442832;28;20061;-70
2023/03/13 02:09:50;;;;;;;18.85;4.72;;;;;;;8.29;100.00;99936.13;10409901;28;20029;-70
2023/03/13 02:14:50;;;;;;;18.23;7.25;;;;;;;8.35;100.00;99928.56;10482816;28;20037;-70
2023/03/13 02:19:51;;;;;;;16.17;6.55;;;;;;;8.44;100.00;99917.59;10466029;28;20128;-71
2023/03/13 02:25:03;;;;;;;18.02;5.47;;;;;;;8.48;100.00;99900.38;10447834;28;20045;-70
2023/03/13 02:30:05;;;;;;;12.13;5.60;;;;;;;8.56;100.00;99885.97;10478062;28;20041;-71
2023/03/13 02:35:11;;;;;;;11.48;6.03;;;;;;;8.67;100.00;99862.91;10431633;28;20037;-70
2023/03/13 02:40:15;;;;;;;9.68;4.22;;;;;;;8.80;100.00;99848.63;10470343;28;20083;-71
2023/03/13 02:45:16;;;;;;;9.25;3.55;;;;;;;8.84;100.00;99829.66;10438861;28;20040;-71
2023/03/13 02:50:17;;;;;;;9.38;3.05;;;;;;;8.91;100.00;99836.88;10470044;28;20381;-71
2023/03/13 02:55:28;;;;;;;7.63;3.58;;;;;;;8.91;100.00;99830.75;10498906;28;20040;-71
2023/03/13 03:00:29;;;;;;;5.53;3.45;;;;;;;8.97;100.00;99810.09;10432722;28;20037;-71
2023/03/13 03:05:29;;;;;;;9.93;3.83;;;;;;;8.99;100.00;99818.88;10462996;28;20472;-71
2023/03/13 03:10:30;;;;;;;8.32;3.55;;;;;;;9.04;100.00;99819.06;10479283;28;20136;-71
2023/03/13 03:15:30;;;;;;;11.82;5.28;;;;;;;9.05;100.00;99811.28;10436346;28;20121;-71
2023/03/13 03:20:31;;;;;;;10.65;4.03;;;;;;;9.11;100.00;99808.88;10436825;28;20127;-71
2023/03/13 03:25:31;;;;;;;7.25;3.80;;;;;;;9.24;100.00;99820.69;10446915;28;20063;-71
2023/03/13 03:30:31;;;;;;;11.27;4.43;;;;;;;9.32;100.00;99818.34;10444050;28;20124;-71
2023/03/13 03:35:34;;;;;;;13.88;3.78;;;;;;;9.43;100.00;99823.06;10449934;28;20041;-71
2023/03/13 03:40:34;;;;;;;;;;;;;;;9.53;100.00;99812.09;10465798;28;20043;-71
2023/03/13 03:45:35;;;;;;;10.05;5.28;;;;;;;9.68;100.00;99801.31;10459762;28;19921;-71
2023/03/13 03:50:35;;;;;;;6.47;3.63;;;;;;;9.75;100.00;99810.22;10450489;28;20128;-72
2023/03/13 03:55:36;;;;;;;6.88;3.10;;;;;;;9.94;100.00;99804.78;10443968;28;20041;-71
2023/03/13 04:00:36;;;;;;;7.18;3.25;;;;;;;9.93;100.00;99794.28;10457918;28;20048;-71
2023/03/13 04:05:37;;;;;;;6.65;4.25;;;;;;;10.03;100.00;99787.63;10449045;28;20493;-72
2023/03/13 04:10:37;;;;;;;5.90;3.20;;;;;;;10.07;100.00;99772.09;10444488;28;20125;-71
2023/03/13 04:15:38;;;;;;;8.18;3.80;;;;;;;10.14;100.00;99787.13;10448684;28;20457;-74
2023/03/13 04:20:39;;;;;;;5.40;3.43;;;;;;;10.28;100.00;99784.06;10476354;28;20056;-72
2023/03/13 04:25:39;;;;;;;6.18;3.50;;;;;;;10.35;100.00;99786.03;10407688;28;20128;-71
2023/03/13 04:30:40;;;;;;;9.82;4.00;;;;;;;10.47;100.00;99776.84;10418086;28;20511;-71
2023/03/13 04:35:40;;;;;;;6.63;3.90;;;;;;;10.49;100.00;99769.91;10403010;28;20117;-71
2023/03/13 04:40:42;;;;;;;7.82;4.03;;;;;;;10.53;100.00;99764.81;10443355;28;20043;-71
2023/03/13 04:45:42;;;;;;;5.27;3.60;;;;;;;10.55;100.00;99747.44;10482129;28;20099;-71
2023/03/13 04:50:43;;;;;;;6.75;2.60;;;;;;;10.60;100.00;99724.03;10483508;28;20116;-71
2023/03/13 04:55:43;;;;;;;4.68;3.22;;;;;;;10.69;100.00;99705.06;10473279;28;20124;-71
2023/03/13 05:00:44;;;;;;;9.45;4.30;;;;;;;10.71;100.00;99709.53;10455651;28;20064;-71
2023/03/13 05:05:44;;;;;;;4.45;2.33;;;;;;;10.83;100.00;99703.75;10443269;28;20043;-72
2023/03/13 05:10:45;;;;;;;4.03;3.08;;;;;;;10.93;100.00;99706.59;10461166;28;20151;-71
2023/03/13 05:15:46;;;;;;;4.70;3.37;;;;;;;10.92;100.00;99716.22;10420559;28;20063;-71
2023/03/13 05:20:46;;;;;;;10.00;3.63;;;;;;;10.98;100.00;99725.94;10453458;28;20120;-71
2023/03/13 05:25:47;;;;;;;7.80;3.90;;;;;;;11.03;100.00;99706.03;10453452;28;20127;-71
2023/03/13 05:30:47;;;;;;;5.88;3.50;;;;;;;11.10;100.00;99704.47;10428086;28;20052;-72
2023/03/13 05:35:48;;;;;;;5.97;2.60;;;;;;;11.02;100.00;99715.63;10400738;28;20193;-70
2023/03/13 05:40:48;;;;;;;8.18;3.22;;;;;;;10.93;100.00;99722.31;10444220;28;20057;-70
2023/03/13 05:45:49;;;;;;;4.05;2.22;;;;;;;11.03;100.00;99706.03;10443638;28;20063;-70
2023/03/13 05:50:49;;;;;;;7.20;3.55;;;;;;;11.09;100.00;99710.56;10435833;28;20775;-71
2023/03/13 05:55:50;;;;;;;9.15;4.22;;;;;;;11.26;100.00;99703.13;10474092;28;20116;-70
2023/03/13 06:00:50;;;;;;;9.20;5.60;;;;;;;11.32;100.00;99687.56;10470519;28;20123;-72
2023/03/13 06:05:56;;;;;;;26.23;16.77;;;;;;;11.30;100.00;99691.88;10442683;28;20886;-71
2023/03/13 06:11:01;;;;;;;8.23;6.25;;;;;;;11.35;100.00;99689.41;10431401;28;20033;-70
2023/03/13 06:16:01;;;;;;;8.95;4.35;;;;;;;11.43;100.00;99699.22;10445054;28;20128;-71
2023/03/13 06:21:02;;;;;;;13.63;3.70;;;;;;;11.55;100.00;99692.50;10451981;28;20500;-71
2023/03/13 06:26:03;;;;;;;10.07;2.65;;;;;;;11.59;100.00;99692.63;10461186;28;20052;-71
2023/03/13 06:31:04;;;;;;;4.45;2.80;;;;;;;11.65;100.00;99681.41;10489616;28;20065;-71
2023/03/13 06:36:05;;;;;;;10.63;2.90;;;;;;;11.71;100.00;99699.03;10455461;28;20438;-71
2023/03/13 06:41:05;;;;;;;8.40;3.28;;;;;;;11.71;100.00;99688.53;10445797;28;20045;-71
2023/03/13 06:46:06;;;;;;;5.40;2.53;;;;;;;11.72;100.00;99691.19;10447598;28;20607;-71
2023/03/13 06:51:10;;;;;;;8.50;4.18;;;;;;;11.88;100.00;99675.81;10462030;28;20060;-71
2023/03/13 06:56:11;;;;;;;14.57;8.05;;;;;;;11.86;100.00;99667.03;10472027;28;20064;-71
2023/03/13 07:01:12;;;;;;;8.60;4.05;;;;;;;12.00;100.00;99644.66;10462793;28;20156;-71
2023/03/13 07:06:12;;;;;;;7.82;3.65;;;;;;;12.11;100.00;99615.16;10456026;28;20041;-70
2023/03/13 07:11:13;;;;;;;7.00;3.15;;;;;;;12.05;100.00;99642.16;10447280;28;20075;-71
2023/03/13 07:16:15;;;;;;;7.65;4.28;;;;;;;12.14;100.00;99644.09;10438276;28;20045;-72
2023/03/13 07:21:15;;;;;;;6.95;2.72;;;;;;;12.17;100.00;99646.78;10410229;28;20048;-71
2023/03/13 07:26:16;;;;;;;6.47;3.22;;;;;;;12.06;100.00;99641.31;10403989;28;20039;-72
2023/03/13 07:31:19;;;;;;;7.25;3.17;;;;;;;12.03;100.00;99665.72;10404979;28;20128;-72
2023/03/13 07:36:19;;;;;;;11.05;5.45;;;;;;;12.11;100.00;99655.41;10418833;28;20424;-73
2023/03/13 07:41:20;;;;;;;10.30;4.03;;;;;;;12.09;100.00;99664.97;10452758;28;20048;-72
2023/03/13 07:46:20;;;;;;;4.55;2.08;;;;;;;12.21;100.00;99650.34;10470962;28;20120;-72
2023/03/13 07:51:22;;;;;;;5.60;3.42;;;;;;;12.39;100.00;99647.22;10405033;28;20156;-71
2023/03/13 07:56:23;;;;;;;7.90;2.92;;;;;;;12.52;100.00;99648.38;10421457;28;20053;-71
2023/03/13 08:01:25;;;;;;;10.55;3.17;;;;;;;12.51;100.00;99643.97;10425706;28;20029;-71
2023/03/13 08:06:26;;;;;;;7.50;4.20;;;;;;;12.56;100.00;99644.97;10432780;28;20112;-71
2023/03/13 08:11:26;;;;;;;11.23;3.95;;;;;;;12.61;100.00;99638.94;10425278;28;20095;-71
2023/03/13 08:16:28;;;;;;;6.88;2.05;;;;;;;12.60;100.00;99650.28;10403279;28;20117;-71
2023/03/13 08:21:34;;;;;;;7.43;2.83;;;;;;;12.50;100.00;99637.84;10403317;28;20044;-71
2023/03/13 08:26:35;;;;;;;6.78;2.70;;;;;;;12.56;100.00;99642.34;10445567;28;20167;-71
2023/03/13 08:31:37;;;;;;;4.90;2.23;;;;;;;12.80;100.00;99622.66;10477318;28;20037;-71
2023/03/13 08:36:38;;;;;;;6.28;2.15;;;;;;;13.16;100.00;99614.53;10419609;28;20504;-71
2023/03/13 08:41:41;;;;;;;9.13;2.67;;;;;;;13.51;100.00;99610.78;10424638;28;20036;-71
2023/03/13 08:46:42;;;;;;;14.98;3.22;;;;;;;14.11;100.00;99618.63;10440959;28;20771;-71
2023/03/13 08:51:43;;;;;;;24.17;4.85;;;;;;;14.39;100.00;99614.59;10450256;28;20052;-71
2023/03/13 08:56:44;;;;;;;9.18;3.67;;;;;;;14.20;100.00;99578.38;10443285;28;20029;-71
2023/03/13 09:01:44;;;;;;;17.95;4.55;;;;;;;14.24;100.00;99614.41;10442119;28;20536;-70
2023/03/13 09:06:45;;;;;;;4.30;2.38;;;;;;;14.36;100.00;99606.66;10403418;28;20052;-71
2023/03/13 09:11:45;;;;;;;3.42;1.80;;;;;;;13.87;100.00;99611.28;10412439;28;20045;-71
2023/03/13 09:16:47;;;;;;;8.40;2.60;;;;;;;13.99;100.00;99602.69;10442229;28;20114;-71
2023/03/13 09:21:48;;;;;;;5.03;1.92;;;;;;;14.63;100.00;99607.84;10454068;28;20033;-72
2023/03/13 09:26:48;;;;;;;6.83;1.97;;;;;;;15.06;100.00;99588.97;10460206;28;20193;-71
2023/03/13 09:31:49;;;;;;;8.73;2.67;;;;;;;15.01;100.00;99595.06;10441952;28;20204;-72
2023/03/13 09:36:49;;;;;;;3.85;1.65;;;;;;;14.41;100.00;99579.50;10420810;28;20541;-72
2023/03/13 09:42:28;;;;;;;4.30;1.83;;;;;;;14.59;100.00;99573.56;10423626;28;20041;-72
2023/03/13 09:47:35;;;;;;;2.42;1.77;;;;;;;15.33;100.00;99558.44;10437063;28;20459;-72
2023/03/13 09:52:39;;;;;;;7.15;2.60;;;;;;;14.81;100.00;99559.78;10458920;28;20488;-73
2023/03/13 09:57:53;;;;;;;5.32;1.63;;;;;;;14.83;100.00;99565.06;10442907;28;20041;-72
2023/03/13 10:03:22;;;;;;;4.40;1.77;;;;;;;15.98;100.00;99542.13;10441940;28;20037;-72
2023/03/13 10:08:29;;;;;;;7.32;1.85;;;;;;;17.67;100.00;99514.97;10429958;28;20485;-72
2023/03/13 10:13:59;;;;;;;2.72;1.52;;;;;;;16.67;100.00;99530.03;10439568;28;20038;-73
2023/03/13 10:19:07;;;;;;;5.35;1.85;;;;;;;15.60;100.00;99519.06;10406320;28;20060;-73
2023/03/13 10:24:34;;;;;;;5.75;1.70;;;;;;;15.40;100.00;99515.44;10419613;28;20038;-73
2023/03/13 10:29:34;;;;;;;4.07;1.40;;;;;;;15.08;100.00;99516.09;10406472;28;20409;-73
2023/03/13 10:34:51;;;;;;;4.03;2.47;;;;;;;15.09;100.00;99503.78;10428607;28;20047;-72
2023/03/13 10:39:52;;;;;;;5.50;1.55;;;;;;;15.90;100.00;99422.50;10504584;28;20515;-73
2023/03/13 10:44:59;;;;;;;2.53;1.00;;;;;;;16.23;100.00;99479.78;10445529;28;20029;-73
2023/03/13 10:50:00;;;;;;;2.92;1.33;;;;;;;15.96;100.00;99470.00;10451947;28;20111;-72
2023/03/13 10:55:04;;;;;;;2.92;1.52;;;;;;;15.48;100.00;99451.34;10452783;28;20393;-73
2023/03/13 11:00:28;;;;;;;5.88;1.38;;;;;;;15.57;100.00;99470.69;10463181;28;20045;-73
2023/03/13 11:05:36;;;;;;;2.88;1.60;;;;;;;15.79;100.00;99444.41;10464957;28;20040;-73
2023/03/13 11:10:37;;;;;;;2.28;0.95;;;;;;;17.64;100.00;99448.84;10469918;28;20033;-72
2023/03/13 11:15:44;;;;;;;5.93;0.90;;;;;;;17.09;100.00;99432.25;10462846;28;20464;-73
2023/03/13 11:20:45;;;;;;;7.25;2.67;;;;;;;16.88;100.00;99434.91;10476567;28;20043;-73
2023/03/13 11:26:05;;;;;;;3.03;1.30;;;;;;;16.54;100.00;99426.13;10482303;28;20033;-74
2023/03/13 11:31:32;;;;;;;1.40;0.98;;;;;;;16.75;100.00;99419.97;10456135;28;20041;-73
2023/03/13 11:36:41;;;;;;;2.00;0.88;;;;;;;17.44;100.00;99396.91;10409309;28;20037;-74
2023/03/13 11:41:52;;;;;;;1.67;0.80;;;;;;;16.94;100.00;99398.81;10401730;28;20483;-73
2023/03/13 11:46:58;;;;;;;4.70;1.30;;;;;;;16.69;100.00;99398.84;10439409;28;20385;-73
2023/03/13 11:52:23;;;;;;;6.13;1.55;;;;;;;16.92;100.00;99393.50;10491321;28;20033;-73
2023/03/13 11:57:41;;;;;;;3.85;1.10;;;;;;;17.88;100.00;99373.78;10472462;28;20116;-74
2023/03/13 12:02:48;;;;;;;5.25;1.23;;;;;;;18.15;100.00;99353.34;10472450;28;20044;-73
2023/03/13 12:07:54;;;;;;;5.47;1.10;;;;;;;17.41;100.00;99351.97;10503119;28;20067;-73
2023/03/13 12:13:02;;;;;;;2.67;0.80;;;;;;;16.74;100.00;99338.94;10401271;28;20128;-74
2023/03/13 12:18:13;;;;;;;2.50;0.77;;;;;;;16.07;100.00;99353.94;10383960;28;20059;-73
2023/03/13 12:23:42;;;;;;;2.85;0.75;;;;;;;15.74;100.00;99343.28;10434303;28;20040;-73
2023/03/13 12:29:13;;;;;;;1.23;0.70;;;;;;;16.90;100.00;99329.22;10468208;28;20045;-73
2023/03/13 12:34:16;;;;;;;2.22;0.82;;;;;;;16.22;100.00;99335.47;10455326;28;20036;-74
2023/03/13 12:39:20;;;;;;;1.83;0.90;;;;;;;15.89;100.00;99308.19;10434940;28;20048;-73
2023/03/13 12:44:22;;;;;;;3.03;0.85;;;;;;;16.61;100.00;99294.97;10443153;28;20056;-73
2023/03/13 12:49:35;;;;;;;2.65;0.75;;;;;;;16.53;100.00;99276.47;10436239;28;20045;-74
2023/03/13 12:55:00;;;;;;;2.20;1.50;;;;;;;16.57;100.00;99251.81;10451481;28;20033;-74
2023/03/13 13:00:04;;;;;;;1.33;0.60;;;;;;;17.95;96.79;99268.75;10447678;28;20544;-73
2023/03/13 13:05:05;;;;;;;2.90;1.33;;;;;;;17.55;97.37;99260.19;10456259;28;20047;-74
2023/03/13 13:10:08;;;;;;;0.60;0.40;;;;;;;18.88;91.71;99252.84;10460463;28;20048;-74
2023/03/13 13:15:21;;;;;;;2.85;0.63;;;;;;;18.65;88.48;99255.75;10460021;28;20056;-74
2023/03/13 13:20:32;;;;;;;1.80;1.05;;;;;;;17.15;96.15;99269.25;10389804;28;20374;-74
2023/03/13 13:25:34;;;;;;;1.55;0.85;;;;;;;16.61;100.00;99271.19;10405241;28;20489;-74
2023/03/13 13:30:34;;;;;;;2.08;1.05;;;;;;;16.25;100.00;99268.59;10470032;28;20048;-74
2023/03/13 13:35:35;;;;;;;9.52;2.08;;;;;;;15.89;100.00;99194.75;10465674;28;20498;-73
2023/03/13 13:40:35;;;;;;;1.38;0.70;;;;;;;15.67;100.00;99238.66;10463342;28;20036;-74
2023/03/13 13:45:36;;;;;;;7.03;0.95;;;;;;;16.04;100.00;99236.06;10474706;28;20530;-74
2023/03/13 13:50:36;;;;;;;4.57;1.00;;;;;;;16.07;100.00;99224.66;10470479;28;20055;-73
2023/03/13 13:55:43;;;;;;;1.90;0.80;;;;;;;15.82;100.00;99209.66;10473728;28;20040;-74
2023/03/13 14:01:00;;;;;;;6.50;1.15;;;;;;;15.54;100.00;99220.19;10470299;28;20078;-74
2023/03/13 14:06:34;;;;;;;4.05;0.90;;;;;;;15.71;100.00;99221.97;10446778;28;20064;-74
2023/03/13 14:11:36;;;;;;;1.08;0.80;;;;;;;15.76;100.00;99199.13;10447830;28;20036;-73
2023/03/13 14:16:37;;;;;;;;;;;;;;;15.74;100.00;99186.81;10500756;28;20033;-74
2023/03/13 14:21:37;;;;;;;1.05;0.70;;;;;;;16.30;100.00;99187.63;10464295;28;20376;-73
2023/03/13 14:26:38;;;;;;;6.45;3.00;;;;;;;16.52;100.00;99179.66;10478006;28;20154;-74
2023/03/13 14:31:38;;;;;;;4.57;1.55;;;;;;;16.64;100.00;99197.22;10465970;28;20049;-73
2023/03/13 14:36:55;;;;;;;3.42;0.98;;;;;;;17.81;97.21;99186.84;10449944;28;20555;-73
2023/03/13 14:42:04;;;;;;;3.05;0.90;;;;;;;16.91;98.25;99190.06;10470834;28;20035;-73
2023/03/13 14:47:07;;;;;;;2.20;1.00;;;;;;;16.38;100.00;99185.00;10445423;28;20060;-74
2023/03/13 14:52:16;;;;;;;4.60;2.03;;;;;;;16.00;100.00;99178.91;10444641;28;20037;-74
2023/03/13 14:57:21;;;;;;;4.78;1.05;;;;;;;16.52;95.21;99161.16;10433617;28;20042;-74
2023/03/13 15:02:28;;;;;;;4.63;2.05;;;;;;;16.99;94.84;99169.78;10404142;28;20047;-75
2023/03/13 15:07:40;;;;;;;3.92;1.20;;;;;;;17.86;91.19;99153.28;10445794;28;20400;-73
2023/03/13 15:12:42;;;;;;;38.25;3.15;;;;;;;18.47;84.14;99146.44;10428290;28;20477;-75
2023/03/13 15:17:42;;;;;;;1.88;1.05;;;;;;;17.54;90.64;99135.91;10445270;28;20040;-73
2023/03/13 15:22:44;;;;;;;4.63;1.20;;;;;;;18.08;87.58;99127.47;10450184;28;20054;-74
2023/03/13 15:27:44;;;;;;;5.23;1.10;;;;;;;18.71;83.41;99117.03;10446487;28;20033;-73
2023/03/13 15:32:45;;;;;;;4.55;1.52;;;;;;;18.89;82.16;99099.97;10444864;28;20033;-74
2023/03/13 15:37:46;;;;;;;6.27;1.73;;;;;;;18.67;82.78;99092.31;10445661;28;20047;-74
2023/03/13 15:42:46;;;;;;;3.67;1.27;;;;;;;17.07;88.95;99088.69;10414765;28;20034;-74
2023/03/13 15:47:47;;;;;;;4.10;1.23;;;;;;;17.09;90.04;99070.16;10403044;28;20124;-74
2023/03/13 15:52:48;;;;;;;4.27;1.30;;;;;;;16.62;94.06;99051.09;10404219;28;20034;-74
2023/03/13 15:57:48;;;;;;;3.17;1.20;;;;;;;16.37;97.26;99053.88;10404323;28;20034;-74
2023/03/13 16:02:49;;;;;;;2.88;1.30;;;;;;;16.19;97.94;99036.34;10404391;28;20927;-73
2023/03/13 16:07:49;;;;;;;3.55;1.38;;;;;;;15.77;99.39;99036.50;10402536;28;20045;-74
2023/03/13 16:12:50;;;;;;;4.45;1.63;;;;;;;15.20;99.95;99040.09;10403121;28;20068;-73
2023/03/13 16:17:50;;;;;;;4.90;1.55;;;;;;;15.12;100.00;99029.53;10401659;28;20056;-74
2023/03/13 16:22:51;;;;;;;3.88;1.85;;;;;;;14.91;100.00;99023.38;10451196;28;20059;-74
2023/03/13 16:27:53;;;;;;;3.05;1.42;;;;;;;14.63;100.00;99020.69;10406903;28;20486;-73
2023/03/13 16:32:54;;;;;;;3.40;1.73;;;;;;;14.22;100.00;99027.63;10409250;28;20485;-74
2023/03/13 16:37:55;;;;;;;5.97;2.17;;;;;;;14.17;100.00;99012.69;10439088;28;20107;-74
2023/03/13 16:42:55;;;;;;;10.85;2.38;;;;;;;13.90;100.00;99015.25;10427976;28;20493;-73
2023/03/13 16:47:56;;;;;;;8.48;1.65;;;;;;;13.79;100.00;99012.53;10429762;28;20044;-74
2023/03/13 16:52:56;;;;;;;6.88;1.60;;;;;;;13.60;100.00;99003.69;10422379;28;20550;-74
2023/03/13 16:57:57;;;;;;;4.43;1.38;;;;;;;13.56;100.00;99009.81;10433548;28;20043;-73
2023/03/13 17:02:57;;;;;;;3.65;1.90;;;;;;;13.38;100.00;99015.78;10444535;28;20037;-74
2023/03/13 17:07:58;;;;;;;9.98;1.88;;;;;;;13.31;100.00;99013.97;10432069;28;20045;-75
2023/03/13 17:12:59;;;;;;;4.47;1.80;;;;;;;13.32;100.00;99003.50;10421169;28;20048;-74
2023/03/13 17:17:59;;;;;;;6.80;2.85;;;;;;;13.26;100.00;98989.44;10418896;28;20041;-74
2023/03/13 17:23:00;;;;;;;4.32;1.88;;;;;;;13.21;100.00;98994.66;10444977;28;20048;-74
2023/03/13 17:28:00;;;;;;;5.32;1.50;;;;;;;13.15;100.00;98984.97;10464338;28;20041;-74
2023/03/13 17:33:01;;;;;;;2.67;1.88;;;;;;;12.98;100.00;98992.75;10407186;28;20043;-74
2023/03/13 17:38:02;;;;;;;7.30;1.98;;;;;;;12.97;100.00;98976.97;10429916;28;20037;-73
2023/03/13 17:43:02;;;;;;;4.60;2.42;;;;;;;12.97;100.00;98971.72;10440873;28;20091;-74
2023/03/13 17:48:03;;;;;;;7.07;2.90;;;;;;;12.93;100.00;98962.94;10439930;28;20148;-74
2023/03/13 17:53:04;;;;;;;7.63;2.25;;;;;;;12.79;100.00;98962.81;10441246;28;20033;-74
2023/03/13 17:58:04;;;;;;;9.02;1.55;;;;;;;12.68;100.00;98962.75;10457805;28;20519;-73
2023/03/13 18:03:05;;;;;;;6.68;2.60;;;;;;;12.62;100.00;98963.56;10456261;28;20136;-73
2023/03/13 18:08:07;;;;;;;8.93;2.70;;;;;;;12.51;100.00;98967.84;10463643;28;20492;-73
2023/03/13 18:13:07;;;;;;;8.13;3.50;;;;;;;12.36;100.00;98960.72;10436859;28;20068;-73
2023/03/13 18:18:16;;;;;;;3.67;1.92;;;;;;;12.10;100.00;98955.19;10441976;28;20120;-72
2023/03/13 18:23:17;;;;;;;8.48;2.22;;;;;;;12.13;100.00;98949.97;10471656;28;20056;-73
2023/03/13 18:28:17;;;;;;;3.63;1.67;;;;;;;12.10;100.00;98949.94;10440552;28;20033;-74
2023/03/13 18:33:18;;;;;;;5.28;2.08;;;;;;;12.00;100.00;98949.84;10439871;28;20179;-74
2023/03/13 18:38:19;;;;;;;6.13;2.72;;;;;;;11.97;100.00;98947.16;10446060;28;20037;-74
2023/03/13 18:43:19;;;;;;;8.25;2.92;;;;;;;12.07;100.00;98952.53;10445538;28;20041;-74
2023/03/13 18:48:19;;;;;;;11.75;4.05;;;;;;;12.10;100.00;98944.69;10446502;28;20124;-74
2023/03/13 18:53:20;;;;;;;10.70;4.28;;;;;;;12.02;100.00;98936.75;10447448;28;20582;-74
2023/03/13 18:58:20;;;;;;;13.30;2.55;;;;;;;11.78;100.00;98929.44;10453971;28;20162;-75
2023/03/13 19:03:21;;;;;;;16.42;3.78;;;;;;;11.71;100.00;98916.28;10483322;28;20069;-74
2023/03/13 19:08:22;;;;;;;9.45;3.05;;;;;;;11.64;100.00;98926.69;10447544;28;20026;-74
2023/03/13 19:13:22;;;;;;;3.72;2.28;;;;;;;11.63;100.00;98919.69;10444031;28;20132;-74
2023/03/13 19:18:23;;;;;;;7.07;2.83;;;;;;;11.50;100.00;98914.28;10444679;28;20053;-74
2023/03/13 19:23:23;;;;;;;4.18;2.17;;;;;;;11.36;100.00;98908.88;10447094;28;20120;-74
2023/03/13 19:28:24;;;;;;;13.60;2.47;;;;;;;11.12;100.00;98904.19;10461947;28;20044;-74
2023/03/13 19:33:24;;;;;;;22.67;2.78;;;;;;;11.32;100.00;98891.34;10449028;28;20037;-74
2023/03/13 19:38:25;;;;;;;6.45;2.33;;;;;;;11.33;100.00;98887.00;10456938;28;20036;-74
2023/03/13 19:43:25;;;;;;;4.50;2.70;;;;;;;11.05;100.00;98881.41;10483848;28;20507;-74
2023/03/13 19:48:26;;;;;;;10.23;3.85;;;;;;;11.06;100.00;98888.41;10484016;28;20046;-74
2023/03/13 19:53:26;;;;;;;7.88;2.10;;;;;;;10.93;100.00;98879.47;10478992;28;20452;-74
2023/03/13 19:58:27;;;;;;;5.93;2.75;;;;;;;10.72;100.00;98886.16;10423015;28;20151;-75
2023/03/13 20:03:28;;;;;;;4.20;2.15;;;;;;;10.71;100.00;98887.91;10387851;28;20123;-74
2023/03/13 20:08:28;;;;;;;8.20;2.58;;;;;;;10.89;100.00;98881.19;10420907;28;20116;-72
2023/03/13 20:13:29;;;;;;;7.22;3.65;;;;;;;10.86;100.00;98884.63;10452270;28;20120;-76
2023/03/13 20:18:29;;;;;;;12.23;2.58;;;;;;;10.83;100.00;98871.50;10445268;28;20059;-72
2023/03/13 20:23:30;;;;;;;7.72;2.85;;;;;;;10.75;100.00;98872.25;10431754;28;20477;-72
2023/03/13 20:28:30;;;;;;;8.05;2.65;;;;;;;10.69;100.00;98881.75;10441144;28;20515;-72
2023/03/13 20:33:31;;;;;;;7.63;3.45;;;;;;;10.66;100.00;98884.34;10438089;28;20061;-72
2023/03/13 20:38:31;;;;;;;11.40;2.70;;;;;;;10.69;100.00;98917.50;10432763;28;20060;-72
2023/03/13 20:43:32;;;;;;;8.57;2.38;;;;;;;10.74;100.00;98913.22;10430667;28;20037;-74
2023/03/13 20:48:38;;;;;;;8.05;2.85;;;;;;;10.67;100.00;98901.78;10440200;28;20098;-74
2023/03/13 20:53:39;;;;;;;9.23;2.63;;;;;;;10.50;100.00;98924.19;10472858;28;20044;-73
2023/03/13 20:58:39;;;;;;;4.82;2.30;;;;;;;10.46;100.00;98935.44;10424092;28;20044;-74
2023/03/13 21:03:40;;;;;;;5.53;2.45;;;;;;;10.32;100.00;98924.69;10440048;28;20132;-73
2023/03/13 21:08:41;;;;;;;6.35;1.88;;;;;;;10.50;100.00;98927.66;10433426;28;20042;-73
2023/03/13 21:13:42;;;;;;;7.20;2.73;;;;;;;10.43;100.00;98915.34;10402507;28;20080;-74
2023/03/13 21:18:42;;;;;;;6.03;2.22;;;;;;;10.45;100.00;98884.00;10500924;28;20479;-73
2023/03/13 21:23:43;;;;;;;6.40;2.25;;;;;;;10.37;100.00;98883.81;10427080;28;20094;-74
2023/03/13 21:28:44;;;;;;;7.88;3.15;;;;;;;10.23;100.00;98905.38;10497120;28;20446;-74
2023/03/13 21:33:44;;;;;;;3.80;1.80;;;;;;;10.14;100.00;98881.69;10394967;28;20067;-73
2023/03/13 21:38:46;;;;;;;6.53;3.88;;;;;;;10.27;100.00;98867.13;10412658;28;20040;-73
2023/03/13 21:43:47;;;;;;;6.13;2.78;;;;;;;10.04;100.00;98882.38;10426810;28;20048;-72
2023/03/13 21:48:47;;;;;;;7.63;2.90;;;;;;;9.96;100.00;98882.25;10399838;28;20057;-74
2023/03/13 21:53:48;;;;;;;11.27;3.97;;;;;;;9.80;100.00;98886.31;10386790;28;20156;-74
2023/03/13 21:58:48;;;;;;;6.32;2.42;;;;;;;9.76;100.00;98884.47;10379714;28;20084;-73
2023/03/13 22:03:49;;;;;;;5.82;2.28;;;;;;;9.77;100.00;98883.63;10391599;28;20461;-74
2023/03/13 22:08:50;;;;;;;13.27;4.30;;;;;;;9.87;100.00;98879.47;10393046;28;20048;-73
2023/03/13 22:13:51;;;;;;;5.97;2.35;;;;;;;9.71;100.00;98873.97;10430115;28;20041;-73
2023/03/13 22:18:52;;;;;;;4.70;3.50;;;;;;;9.51;100.00;98877.06;10385333;28;20037;-73
2023/03/13 22:23:52;;;;;;;10.25;2.38;;;;;;;9.37;100.00;98876.78;10410919;28;20560;-74
2023/03/13 22:28:53;;;;;;;7.32;2.47;;;;;;;9.48;100.00;98878.72;10482505;28;20056;-73
2023/03/13 22:33:53;;;;;;;8.00;2.10;;;;;;;9.41;100.00;98888.16;10447286;28;20041;-73
2023/03/13 22:38:54;;;;;;;11.07;3.70;;;;;;;9.44;100.00;98910.84;10447322;28;20104;-73
2023/03/13 22:43:54;;;;;;;8.45;2.55;;;;;;;9.41;100.00;98898.63;10446647;28;20064;-73
2023/03/13 22:48:56;;;;;;;9.15;3.15;;;;;;;9.39;100.00;98900.31;10471810;28;20068;-73
2023/03/13 22:53:56;;;;;;;6.55;2.33;;;;;;;9.42;100.00;98887.31;10446709;28;20041;-73
2023/03/13 22:58:57;;;;;;;10.68;4.03;;;;;;;9.45;100.00;98868.22;10471315;28;20131;-73
2023/03/13 23:03:57;;;;;;;5.05;2.13;;;;;;;9.38;100.00;98862.88;10462854;28;20499;-73
2023/03/13 23:08:58;;;;;;;6.90;1.95;;;;;;;9.34;100.00;98848.00;10447388;28;20052;-73
2023/03/13 23:13:58;;;;;;;12.27;2.97;;;;;;;9.53;100.00;98841.41;10447872;28;20068;-73